^^

Nearby METAR Reports

 

EGNV - Tees-Side, United Kingdom
Distance from station: SW 7mi, 11km
Updated: 18/02/2019 21:50
NOT Current
Partly cloudy
Partly cloudy
 Wind from SW
Wind: SW 13 mph , 20 km/h
Temperature: 8°C
Wind Chill: 4°C
Dew Point: 4°C
Humidity: 76%
Barometer: 1008 hPa
Clouds: Partly cloudy
Visibility: 6 miles , 10 km
Cloud details: Few Clouds 640 m
Partly cloudy 1189 m
2019/02/18 21:50 EGNV 182150Z 22011KT 9999 FEW021 SCT039 08/04 Q1008
EGXE - Leeming Raf, United Kingdom
Distance from station: SSW 23mi, 37km
Updated: 19/02/2019 03:50
Mostly cloudy
Mostly cloudy
 Wind from W
Wind: W 5 mph , 7 km/h
Temperature: 7°C
Wind Chill: 6°C
Dew Point: 4°C
Humidity: 81%
Barometer: 1010 hPa
Clouds: Mostly cloudy
Visibility: 6 miles , 10 km
Cloud details: Few Clouds 610 m
Mostly cloudy 1250 m
2019/02/19 03:50 EGXE 190350Z AUTO 28004KT 9999 FEW020/// BKN041/// 07/04 Q1010
 
EGXZ - Topcliffe Raf, United Kingdom
Distance from station: S 27mi, 43km
Updated: 19/02/2019 03:50
Mostly cloudy
Mostly cloudy
 Wind from W
Wind: W 5 mph , 7 km/h
Temperature: 7°C
Wind Chill: 6°C
Dew Point: 4°C
Humidity: 81%
Barometer: 1011 hPa
Clouds: Mostly cloudy
Visibility: 6 miles , 10 km
Cloud details: Mostly cloudy 701 m
2019/02/19 03:50 EGXZ 190350Z AUTO 26004KT 9999 BKN023/// 07/04 Q1011
EGNT - Newcastle, United Kingdom
Distance from station: NNW 34mi, 54km
Updated: 19/02/2019 03:50
Few Clouds
Few Clouds
 Wind from W
Wind: W 17 mph , 28 km/h
Temperature: 6°C
Wind Chill: 2°C
Dew Point: 4°C
Humidity: 87%
Barometer: 1008 hPa
Clouds: Few Clouds
Visibility: 6 miles , 10 km
Cloud details: Few Clouds 1097 m
2019/02/19 03:50 EGNT 190350Z 26015KT 9999 FEW036 06/04 Q1008
 
EGXU - Linton-On-Ouse R, United Kingdom
Distance from station: S 37mi, 60km
Updated: 19/02/2019 03:50
Mostly cloudy
Mostly cloudy
 Wind from W
Wind: W 12 mph , 19 km/h
Temperature: 8°C
Wind Chill: 4°C
Dew Point: 5°C
Humidity: 82%
Barometer: 1011 hPa
Clouds: Mostly cloudy
Visibility: 6 miles , 10 km
Cloud details: Mostly cloudy 610 m
Mostly cloudy 914 m
2019/02/19 03:50 EGXU 190350Z AUTO 26010KT 9999 // BKN020/// BKN030/// 08/05 Q1011
EGNM - Leeds And Bradfo, United Kingdom
Distance from station: SSW 52mi, 83km
Updated: 19/02/2019 03:50
Light drizzle, Mostly cloudy
Light drizzle, Mostly cloudy
 Wind from W
Wind: W 18 mph , 30 km/h, Gust: 30 mph , 48 km/h
Temperature: 6°C
Wind Chill: 2°C
Dew Point: 5°C
Humidity: 93%
Barometer: 1011 hPa
Summary: Light Drizzle
Clouds: Mostly cloudy
Visibility: 6 miles , 10 km
Cloud details: Mostly cloudy 427 m
2019/02/19 03:50 EGNM 190350Z 26016G26KT 9999 -DZ BKN014 06/05 Q1011
 
EGOM - Spadeadam, United Kingdom
Distance from station: WNW 58mi, 94km
Updated: 19/02/2019 03:50
Mist, Mostly cloudy
Mist, Mostly cloudy
 Wind from W
Wind: W 17 mph , 28 km/h
Temperature: 5°C
Wind Chill: 1°C
Dew Point: 5°C
Humidity: 100%
Barometer: 1009 hPa
Summary: Mist
Clouds: Mostly cloudy
Visibility: 4 miles , 7 km
Cloud details: Mostly cloudy 61 m
Partly cloudy 305 m
Mostly cloudy 549 m
2019/02/19 03:50 EGOM 190350Z AUTO 26015KT 7000 BR BKN002/// SCT010/// BKN018/// 05/05 Q1009 RERA
EGNC - Carlisle, United Kingdom
Distance from station: WNW 65mi, 105km
Updated: 12/10/2018 14:50
NOT Current
Light rain, Showers, Overcast
Light rain, Showers, Overcast
 Wind from S
Wind: S 21 mph , 33 km/h, Gust: 38 mph , 61 km/h
Temperature: 16°C
Dew Point: 14°C
Humidity: 88%
Barometer: 992 hPa
Summary: Light rain, Showers
Clouds: Overcast
Visibility: 3 miles , 5 km
Cloud details: Partly cloudy 305 m
Overcast 488 m
2018/10/12 13:50 EGNC 121350Z 18018G33KT 140V220 5000 -SHRA SCT010 OVC016 16/14 Q0992
 
EGCN - Doncaster Sheffi, United Kingdom
Distance from station: S 77mi, 124km
Updated: 19/02/2019 03:50
Clear
Clear
 Wind from SSW
Wind: SSW 8 mph , 13 km/h
Temperature: 8°C
Wind Chill: 6°C
Dew Point: 5°C
Humidity: 82%
Barometer: 1013 hPa
Summary: Clear
Visibility: greater than 7 miles , 10 km
2019/02/19 03:50 EGCN 190350Z 21007KT CAVOK 08/05 Q1013
EGNJ - Humberside, United Kingdom
Distance from station: SSE 80mi, 129km
Updated: 19/02/2019 03:50
Mostly cloudy
Mostly cloudy
 Wind from SW
Wind: SW 20 mph , 31 km/h
Temperature: 7°C
Wind Chill: 3°C
Dew Point: 5°C
Humidity: 87%
Barometer: 1012 hPa
Clouds: Mostly cloudy
Visibility: 6 miles , 10 km
Cloud details: Few Clouds 823 m
Partly cloudy 975 m
Mostly cloudy 1189 m
2019/02/19 03:50 EGNJ 190350Z AUTO 22017KT 9999 FEW027/// SCT032/// BKN039/// 07/05 Q1012
 
EGNH - Blackpool Airpor, United Kingdom
Distance from station: SW 90mi, 145km
Updated: 18/02/2019 20:50
NOT Current
Partly cloudy
Partly cloudy
 Wind from SW
Wind: SW 22 mph , 35 km/h
Temperature: 8°C
Wind Chill: 3°C
Dew Point: 6°C
Humidity: 87%
Barometer: 1010 hPa
Clouds: Partly cloudy
Visibility: 6 miles , 10 km
Cloud details: Partly cloudy 1219 m
2019/02/18 20:50 EGNH 182050Z 23019KT 9999 SCT040 08/06 Q1010
EGXP - Scampton Raf, United Kingdom
Distance from station: SSE 94mi, 151km
Updated: 19/02/2019 03:50
Mostly cloudy
Mostly cloudy
 Wind from SW
Wind: SW 14 mph , 22 km/h
Temperature: 6°C
Wind Chill: 2°C
Dew Point: 4°C
Humidity: 87%
Barometer: 1012 hPa
Clouds: Mostly cloudy
Visibility: 6 miles , 10 km
Cloud details: Mostly cloudy 1250 m
2019/02/19 03:50 EGXP 190350Z AUTO 23012KT 9999 // BKN041/// 06/04 Q1012
 
EGCC - Manchester Intl, United Kingdom
Distance from station: SSW 94mi, 152km
Updated: 19/02/2019 03:50
Light rain, Overcast
Light rain, Overcast
 Wind from WSW
Wind: WSW 8 mph , 13 km/h
Temperature: 7°C
Wind Chill: 5°C
Dew Point: 4°C
Humidity: 81%
Barometer: 1013 hPa
Summary: Light rain
Clouds: Overcast
Visibility: 6 miles , 10 km
Cloud details: Mostly cloudy 640 m
Overcast 914 m
2019/02/19 03:50 EGCC 190350Z AUTO 24007KT 9999 -RA BKN021 OVC030 07/04 Q1013
EGOW - Woodvale Raf, United Kingdom
Distance from station: SW 100mi, 160km
Updated: 01/02/2019 15:50
NOT Current
Few Clouds
Few Clouds
 Wind from NNE
Wind: NNE 16 mph , 26 km/h
Temperature: 4°C
Wind Chill: -1°C
Dew Point: -1°C
Humidity: 70%
Barometer: 996 hPa
Clouds: Few Clouds
Visibility: 6 miles , 10 km
Cloud details: Few Clouds 1219 m
2019/02/01 15:50 EGOW 011550Z 02014KT 9999 FEW040 04/M01 Q0996 BLU